Latest Weather Observations for Hervey Bay

IDQ60801

Issued at 8:32 am EST Monday 3 October 2022 (issued every 10 minutes, with the page automatically refreshed every 10 minutes)

About weather observations | Map of weather stations | Latest weather observations for QLD | Other Formats
Station Details ID: 040405 Name: HERVEY BAY AIRPORT Lat: -25.32 Lon: 152.88 Height: 12.98 m
Data from the previous 72 hours. | See also: Recent months at Hervey Bay
Date/Time
EST
Temp
°C
App
Temp
°C
Dew
Point
°C
Rel
Hum
%
Delta-T
°C
Wind Press
QNH
hPa
Press
MSL
hPa
Rain since
9am
mm
Dir  Spd
km/h
Gust
km/h
Spd
kts
Gust
kts
03/08:30am 19.9 19.2 15.3 75 2.7 S 13 20 7 11 1019.3 1019.2 1.0
03/08:00am 18.6 17.4 15.1 80 2.0 SSW 15 26 8 14 1019.2 1019.1 1.0
03/07:30am 16.9 16.0 14.9 88 1.2 S 13 20 7 11 1018.7 1018.6 1.0
03/07:00am 15.1 13.9 14.0 93 0.6 SSW 13 20 7 11 1018.5 1018.4 1.0
03/06:30am 14.3 12.9 13.3 94 0.6 SSW 13 20 7 11 1018.1 1018.0 1.0
03/06:00am 13.9 12.5 13.3 96 0.3 SSW 13 17 7 9 1018.0 1017.9 1.0
03/05:30am 13.8 12.3 13.2 96 0.3 SSW 13 19 7 10 1017.8 1017.7 1.0
03/05:00am 13.9 12.9 13.3 96 0.3 SSW 11 17 6 9 1017.3 1017.2 1.0
03/04:30am 14.0 13.0 13.4 96 0.3 SW 11 15 6 8 1017.1 1017.0 1.0
03/04:00am 14.4 13.1 13.8 96 0.3 SSW 13 19 7 10 1016.6 1016.5 1.0
03/03:30am 14.4 13.9 13.8 96 0.3 SSW 9 17 5 9 1016.5 1016.4 1.0
03/03:00am 14.6 14.2 14.0 96 0.3 SW 9 13 5 7 1016.3 1016.2 1.0
03/02:30am 14.6 13.4 14.0 96 0.3 SSW 13 17 7 9 1016.2 1016.1 0.8
03/02:00am 14.6 13.8 14.1 97 0.3 SSW 11 17 6 9 1016.4 1016.3 0.8
03/01:30am 14.6 13.8 14.1 97 0.3 SSW 11 17 6 9 1016.6 1016.5 0.8
03/01:00am 14.5 14.0 13.9 96 0.3 SW 9 13 5 7 1016.4 1016.3 0.8
03/12:30am 14.6 13.8 14.0 96 0.3 SW 11 15 6 8 1016.7 1016.6 0.8
03/12:00am 14.8 14.1 14.2 96 0.3 SSW 11 15 6 8 1016.7 1016.6 0.8
 
Date/Time
EST
Temp
°C
App
Temp
°C
Dew
Point
°C
Rel
Hum
%
Delta-T
°C
Wind Press
QNH
hPa
Press
MSL
hPa
Rain since
9am
mm
Dir  Spd
km/h
Gust
km/h
Spd
kts
Gust
kts
02/11:30pm 15.0 14.6 14.2 95 0.5 SW 9 13 5 7 1017.0 1016.9 0.8
02/11:00pm 15.3 15.0 14.5 95 0.5 WSW 9 13 5 7 1016.9 1016.8 0.8
02/10:30pm 15.8 16.0 14.8 94 0.6 SSW 7 9 4 5 1016.7 1016.6 0.8
02/10:00pm 16.5 16.6 15.4 93 0.6 SSW 9 11 5 6 1016.7 1016.6 0.8
02/09:30pm 16.4 16.7 15.1 92 0.8 SSW 7 9 4 5 1016.5 1016.4 0.8
02/09:00pm 16.3 16.1 14.7 90 0.9 SSW 9 13 5 7 1016.6 1016.5 0.8
02/08:30pm 16.4 16.2 14.8 90 0.9 SSW 9 13 5 7 1016.6 1016.5 0.8
02/08:00pm 16.5 15.5 14.7 89 1.0 SSW 13 17 7 9 1016.1 1016.0 0.8
02/07:30pm 16.5 16.2 14.3 87 1.3 SSW 9 13 5 7 1015.6 1015.5 0.8
02/07:00pm 17.2 16.5 14.3 83 1.7 S 11 15 6 8 1015.4 1015.3 0.8
02/06:30pm 17.8 16.8 14.7 82 1.8 S 13 19 7 10 1015.1 1015.0 0.8
02/06:00pm 17.9 17.0 14.8 82 1.8 SSE 13 19 7 10 1014.7 1014.6 0.8
02/05:30pm 18.2 17.8 15.3 83 1.7 S 11 15 6 8 1014.4 1014.3 0.8
02/05:00pm 18.2 18.3 15.5 84 1.6 S 9 15 5 8 1014.0 1013.9 0.8
02/04:30pm 18.2 17.9 15.5 84 1.6 S 11 17 6 9 1013.8 1013.7 0.8
02/04:00pm 18.4 18.2 15.6 84 1.6 S 11 19 6 10 1013.6 1013.5 0.8
02/03:45pm 18.5 17.9 15.6 83 1.7 S 13 19 7 10 1013.6 1013.5 0.8
02/03:30pm 18.4 17.8 15.6 84 1.6 S 13 19 7 10 1013.5 1013.4 0.8
02/03:00pm 18.4 17.9 15.8 85 1.5 SSW 13 19 7 10 1013.5 1013.4 0.8
02/02:50pm 18.4 17.9 15.8 85 1.5 SSW 13 20 7 11 1013.6 1013.5 0.8
02/02:46pm 18.4 18.2 15.6 84 1.6 SSW 11 19 6 10 1013.5 1013.4 0.8
02/02:30pm 18.2 17.7 15.8 86 1.4 S 13 19 7 10 1013.6 1013.5 0.8
02/02:23pm 18.2 18.0 15.8 86 1.4 S 11 17 6 9 1013.5 1013.4 0.8
02/02:07pm 18.1 17.2 15.9 87 1.3 SSW 15 20 8 11 1013.6 1013.5 0.8
02/02:00pm 18.1 18.0 15.9 87 1.3 SSW 11 19 6 10 1013.6 1013.5 0.8
02/01:30pm 17.8 17.6 15.6 87 1.3 S 11 17 6 9 1013.9 1013.8 0.8
02/01:00pm 17.7 17.5 15.7 88 1.2 S 11 19 6 10 1014.1 1014.0 0.8
02/12:34pm 17.3 16.8 16.0 92 0.8 S 13 20 7 11 1014.5 1014.4 0.8
02/12:30pm 17.2 17.0 15.7 91 0.9 S 11 20 6 11 1014.4 1014.3 0.8
02/12:27pm 17.2 17.1 15.9 92 0.8 S 11 15 6 8 1014.4 1014.3 0.8
02/12:00pm 16.8 15.8 15.5 92 0.8 SSW 15 20 8 11 1015.1 1015.0 0.8
02/11:30am 16.8 16.2 15.7 93 0.6 S 13 17 7 9 1015.0 1014.9 0.8
02/11:00am 17.0 15.7 15.9 93 0.6 SSW 17 24 9 13 1015.8 1015.7 0.8
02/10:30am 17.3 16.6 16.3 94 0.6 SSW 15 20 8 11 1015.7 1015.6 0.8
02/10:19am 17.3 16.9 16.3 94 0.6 SSW 13 20 7 11 1015.7 1015.6 0.8
02/10:00am 17.3 17.3 16.3 94 0.6 SSW 11 15 6 8 1015.6 1015.5 0.8
02/09:30am 16.9 16.7 15.6 92 0.8 SSW 11 15 6 8 1016.2 1016.1 0.4
02/09:00am 17.0 16.3 15.5 91 0.9 SSW 13 20 7 11 1016.1 1016.0 0.2
02/08:30am 17.1 16.7 15.1 88 1.2 SSW 11 15 6 8 1015.9 1015.8 0.2
02/08:00am 17.3 16.6 15.3 88 1.2 S 13 24 7 13 1015.9 1015.8 0.2
02/07:30am 17.2 16.6 15.7 91 0.9 SSW 13 24 7 13 1015.7 1015.6 0.2
02/07:00am 16.6 15.9 15.5 93 0.6 SSW 13 17 7 9 1015.3 1015.2 0.2
02/06:30am 16.5 15.7 15.0 91 0.9 SSW 13 19 7 10 1015.3 1015.2 0.2
02/06:00am 16.4 15.6 15.1 92 0.8 SSW 13 20 7 11 1015.0 1014.9 0.2
02/05:30am 16.2 15.4 15.1 93 0.6 SSW 13 22 7 12 1014.8 1014.7 0.2
02/05:00am 16.4 15.6 15.1 92 0.8 SSW 13 17 7 9 1014.5 1014.4 0.2
02/04:30am 16.4 15.6 15.1 92 0.8 SSW 13 17 7 9 1014.2 1014.1 0.2
02/04:00am 16.5 16.0 15.0 91 0.9 SSW 11 17 6 9 1014.1 1014.0 0.2
02/03:30am 16.9 16.2 15.4 91 0.9 SSW 13 17 7 9 1014.2 1014.1 0.2
02/03:00am 17.7 17.1 15.7 88 1.2 SSW 13 22 7 12 1014.1 1014.0 0.2
02/02:30am 17.3 17.1 15.6 90 1.0 SSW 11 13 6 7 1014.1 1014.0 0.2
02/02:00am 17.6 17.4 15.6 88 1.2 SSW 11 17 6 9 1014.1 1014.0 0.2
02/01:30am 17.3 16.8 15.8 91 0.9 S 13 22 7 12 1014.2 1014.1 0.2
02/01:06am 17.0 17.3 15.9 93 0.6 SSW 9 13 5 7 1014.7 1014.6 0.2
02/01:00am 17.0 17.3 15.9 93 0.6 SSW 9 11 5 6 1014.8 1014.7 0.2
02/12:45am 17.1 17.2 15.6 91 0.9 SSW 9 13 5 7 1015.0 1014.9 0.0
02/12:30am 17.2 17.3 15.5 90 1.0 SW 9 15 5 8 1015.1 1015.0 0.0
02/12:00am 17.2 17.3 15.4 89 1.1 SW 9 13 5 7 1015.2 1015.1 0.0
 
Date/Time
EST
Temp
°C
App
Temp
°C
Dew
Point
°C
Rel
Hum
%
Delta-T
°C
Wind Press
QNH
hPa
Press
MSL
hPa
Rain since
9am
mm
Dir  Spd
km/h
Gust
km/h
Spd
kts
Gust
kts
01/11:30pm 17.7 17.0 15.5 87 1.3 SSW 13 17 7 9 1015.7 1015.6 0.0
01/11:00pm 18.1 17.6 15.9 87 1.3 SSW 13 20 7 11 1016.0 1015.9 0.0
01/10:49pm 17.8 17.7 16.0 89 1.1 S 11 15 6 8 1016.0 1015.9 0.0
01/10:32pm 17.9 17.2 15.5 86 1.4 S 13 20 7 11 1016.0 1015.9 0.0
01/10:30pm 18.1 17.4 15.5 85 1.5 S 13 22 7 12 1016.0 1015.9 0.0
01/10:00pm 18.5 17.9 15.6 83 1.7 S 13 19 7 10 1015.9 1015.8 0.0
01/09:30pm 18.3 18.4 15.6 84 1.6 S 9 17 5 9 1016.0 1015.9 0.0
01/09:00pm 18.8 17.8 15.7 82 1.8 S 15 24 8 13 1015.9 1015.8 0.0
01/08:30pm 18.9 18.6 15.4 80 2.1 SSE 11 17 6 9 1015.7 1015.6 0.0
01/08:00pm 19.6 19.5 16.1 80 2.1 SSE 11 17 6 9 1015.6 1015.5 0.0
01/07:30pm 19.5 19.0 15.8 79 2.2 SSE 13 20 7 11 1015.1 1015.0 0.0
01/07:00pm 19.5 19.0 15.8 79 2.2 SE 13 24 7 13 1015.0 1014.9 0.0
01/06:30pm 19.8 18.8 15.7 77 2.4 SE 15 26 8 14 1014.6 1014.5 0.0
01/06:00pm 20.2 19.3 15.8 76 2.6 SSE 15 26 8 14 1014.5 1014.4 0.0
01/05:30pm 20.6 19.7 15.8 74 2.9 SE 15 24 8 13 1014.1 1014.0 0.0
01/05:00pm 21.1 20.2 15.9 72 3.1 SE 15 24 8 13 1013.8 1013.7 0.0
01/04:30pm 22.1 20.2 15.2 65 4.1 SE 19 28 10 15 1013.7 1013.6 0.0
01/04:00pm 22.2 19.8 15.3 65 4.1 ESE 22 32 12 17 1013.5 1013.4 0.0
01/03:30pm 23.9 22.1 15.9 61 4.8 ESE 20 30 11 16 1013.3 1013.2 0.0
01/03:00pm 23.4 20.8 14.9 59 5.1 ESE 22 30 12 16 1013.2 1013.1 0.0
01/02:30pm 24.1 21.3 15.3 58 5.3 ESE 24 33 13 18 1013.4 1013.3 0.0
01/02:00pm 24.8 22.1 15.7 57 5.5 ESE 24 33 13 18 1013.5 1013.4 0.0
01/01:30pm 24.5 22.3 14.9 55 5.7 SE 20 30 11 16 1014.0 1013.9 0.0
01/01:00pm 24.6 21.9 14.7 54 5.9 ESE 22 30 12 16 1014.4 1014.3 0.0
01/12:30pm 24.6 22.9 14.7 54 5.9 SE 17 28 9 15 1015.0 1014.9 0.0
01/12:00pm 24.4 23.9 14.8 55 5.7 SE 11 22 6 12 1015.3 1015.2 0.0
01/11:30am 23.6 22.6 14.6 57 5.3 SSE 13 20 7 11 1015.9 1015.8 0.0
01/11:00am 23.7 22.8 13.8 53 5.8 SSE 11 19 6 10 1016.6 1016.5 0.0
01/10:30am 23.4 22.3 14.4 57 5.3 S 13 26 7 14 1016.8 1016.7 0.0
01/10:00am 23.1 21.7 14.4 58 5.1 S 15 24 8 13 1017.0 1016.9 0.0
01/09:30am 22.0 19.6 13.9 60 4.7 SSW 19 26 10 14 1017.3 1017.2 0.0
01/09:00am 21.9 20.3 13.8 60 4.7 S 15 24 8 13 1017.5 1017.4 0.2
01/08:30am 21.0 18.4 13.9 64 4.1 S 20 32 11 17 1017.4 1017.3 0.2
01/08:00am 20.2 18.8 14.6 70 3.3 SSW 15 22 8 12 1017.3 1017.2 0.2
01/07:30am 18.8 17.7 14.3 75 2.6 SSW 13 22 7 12 1017.4 1017.3 0.2
01/07:00am 17.4 16.4 14.5 83 1.7 SSW 13 19 7 10 1017.0 1016.9 0.2
01/06:30am 16.0 15.7 14.5 91 0.9 SSW 9 15 5 8 1016.5 1016.4 0.2
01/06:00am 14.7 14.5 13.7 94 0.6 SSW 7 9 4 5 1016.0 1015.9 0.2
01/05:30am 14.3 13.3 13.5 95 0.4 SW 11 15 6 8 1015.9 1015.8 0.2
01/05:00am 14.4 13.5 13.6 95 0.4 SSW 11 15 6 8 1015.5 1015.4 0.2
01/04:30am 14.2 13.2 13.4 95 0.4 SSW 11 15 6 8 1015.2 1015.1 0.2
01/04:00am 14.0 13.3 13.2 95 0.4 SSW 9 11 5 6 1015.0 1014.9 0.2
01/03:30am 14.1 13.0 13.1 94 0.6 SSW 11 13 6 7 1014.9 1014.8 0.2
01/03:00am 14.1 13.4 13.1 94 0.6 SSW 9 11 5 6 1015.4 1015.3 0.2
01/02:30am 13.9 13.5 13.0 94 0.5 SSW 7 9 4 5 1015.5 1015.4 0.2
01/02:00am 14.0 13.3 13.1 94 0.5 SSW 9 9 5 5 1015.7 1015.6 0.2
01/01:30am 14.2 13.5 13.1 93 0.6 SW 9 9 5 5 1015.8 1015.7 0.2
01/01:00am 14.7 14.4 13.2 91 0.8 SW 7 9 4 5 1016.2 1016.1 0.2
01/12:30am 15.0 14.7 13.4 90 0.9 WSW 7 9 4 5 1016.3 1016.2 0.2
01/12:00am 15.5 14.9 13.5 88 1.1 SW 9 11 5 6 1016.3 1016.2 0.2
 
Date/Time
EST
Temp
°C
App
Temp
°C
Dew
Point
°C
Rel
Hum
%
Delta-T
°C
Wind Press
QNH
hPa
Press
MSL
hPa
Rain since
9am
mm
Dir  Spd
km/h
Gust
km/h
Spd
kts
Gust
kts
30/11:30pm 15.4 14.9 13.8 90 0.9 SW 9 11 5 6 1016.5 1016.4 0.2
30/11:00pm 15.3 14.7 13.5 89 1.0 SW 9 9 5 5 1016.8 1016.7 0.2
30/10:30pm 15.5 15.0 13.9 90 0.9 SW 9 11 5 6 1017.0 1016.9 0.2
30/10:00pm 15.6 15.5 14.0 90 0.9 SW 7 9 4 5 1016.8 1016.7 0.2
30/09:30pm 15.9 15.9 14.1 89 1.0 WSW 7 9 4 5 1016.7 1016.6 0.2
30/09:00pm 17.2 17.3 14.5 84 1.5 S 7 9 4 5 1016.3 1016.2 0.2
30/08:30pm 17.6 17.5 15.0 85 1.5 SSE 9 13 5 7 1016.2 1016.1 0.2
30/08:00pm 17.5 17.7 14.2 81 1.9 ESE 6 9 3 5 1016.1 1016.0 0.2
30/07:30pm 19.0 19.1 14.5 75 2.6 E 7 11 4 6 1016.0 1015.9 0.2
30/07:00pm 19.7 18.7 14.5 72 3.0 E 13 17 7 9 1015.8 1015.7 0.2
30/06:30pm 19.8 19.0 14.0 69 3.3 E 11 15 6 8 1015.8 1015.7 0.2
30/06:00pm 20.5 17.9 13.2 63 4.2 E 19 24 10 13 1015.3 1015.2 0.2
30/05:30pm 21.4 18.6 12.5 57 5.0 ESE 19 26 10 14 1014.9 1014.8 0.2
30/05:00pm 22.9 19.5 11.3 48 6.5 E 20 26 11 14 1014.7 1014.6 0.2
30/04:30pm 23.4 20.0 11.1 46 6.9 ESE 20 26 11 14 1014.6 1014.5 0.2
30/04:00pm 23.8 19.8 11.8 47 6.8 ESE 24 30 13 16 1014.5 1014.4 0.2
30/03:30pm 24.0 20.0 11.7 46 7.0 ESE 24 30 13 16 1014.5 1014.4 0.2
30/03:00pm 24.6 21.0 11.9 45 7.2 ESE 22 30 12 16 1014.7 1014.6 0.2
30/02:30pm 24.8 21.2 11.7 44 7.4 ESE 22 28 12 15 1014.9 1014.8 0.2
30/02:00pm 24.8 20.7 11.4 43 7.6 ESE 24 32 13 17 1015.0 1014.9 0.2
30/01:30pm 25.2 22.8 11.4 42 7.8 SE 15 24 8 13 1015.2 1015.1 0.2
30/01:00pm 25.1 22.3 11.3 42 7.8 SE 17 26 9 14 1015.6 1015.5 0.2
30/12:30pm 25.4 22.3 10.4 39 8.3 ESE 17 22 9 12 1016.0 1015.9 0.2
30/12:00pm 25.3 23.0 10.4 39 8.3 SSE 13 20 7 11 1016.5 1016.4 0.2
30/11:30am 24.5 22.7 10.8 42 7.6 S 11 19 6 10 1017.0 1016.9 0.2
30/11:00am 24.1 22.6 10.7 43 7.4 SSW 9 17 5 9 1017.1 1017.0 0.2
30/10:30am 23.7 21.6 9.7 41 7.6 SSE 11 17 6 9 1017.5 1017.4 0.2
30/10:00am 22.6 21.1 10.7 47 6.5 SSW 9 17 5 9 1017.7 1017.6 0.0
30/09:30am 21.8 20.2 11.5 52 5.7 SSW 11 17 6 9 1017.7 1017.6 0.0
30/09:00am 20.8 19.2 11.7 56 5.1 SSW 11 19 6 10 1017.3 1017.2 0.2

Other formats

Comma delimited format used in spreadsheet applications
http://www.bom.gov.au/fwo/IDQ60801/IDQ60801.95565.axf

JavaScript Object Notation format (JSON) in row-major order
http://www.bom.gov.au/fwo/IDQ60801/IDQ60801.95565.json

Data quality

Most of these data are generated automatically and are frequently updated. Quality checks on data are not normally performed. It is possible for incorrect values to appear. Refer to information at About Latest Weather Observations and please check the disclaimer before using these data.